loungefly toy story alien backpack

Kcou what was that

list of jrr tolkien books in chronological order

bucky utopia neck pillow

my little happiness

casio nam mtp-vt01l-1budf

transcend 2gb ddr3 ram price for desktop

cloth deer tablecloth

fully automatic washing machine with dryer

airplane toy with runway

victrola vintage 3-speed

bandai mg gundam

floating shelves without drilling

i c e age baby

shoulder pain causes
gw bicycles usa

Benefits of using Zippyshare: 1) Select a file to send by clicking the "Browse" button. You can then select photos, audio, video, documents or anything else you want to send. The maximum file size is 500 MB. 2) Click the "Start Upload" button to start uploading the file. You will see the progress of the file transfer. 2020년 원격대학 인증 역량진단 편람 2020-07-30 [2018] 국회미래교육포럼 자료집 2018-03-28 [2016] 지속가능한 대한민국 온라인 고등교육 발전방안 포럼 자료 2016-11-29 [2015] 사이버대학 교육 효율성 제고를 위한 학사제도 운영 방안 연구 2016-07-15. Open to the public. Control tower: yes. ARTCC: KANSAS CITY CENTER. FSS: COLUMBIA FLIGHT SERVICE STATION. NOTAMs facility: COU (NOTAM-D service available). TAF KCOU 292331Z 3000/3024 14013G23KT P6SM FEW120 FM300600 16016G23KT P6SM VCTS BKN100CB TEMPO 3008/3010 4SM TSRA BR OVC020CB FM301000 16013G19KT P6SM -SHRA BKN060 FM301200 20013G23KT P6SM BKN035 FM301600 24016G25KT P6SM SCT050. TAF Columbia Regional Airport. Columbia Regional Airport is a. KCOU : 071720Z 0718/0818 07007KT P6SM SKC FM080000 11007KT P6SM SKC FM080600 13010G20KT P6SM SCT250 KJEF 13nm S : 071720Z 0718/0818 08007KT P6SM SKC FM080200 11007KT P6SM SKC FM081100 13010G20KT P6SM SCT250 NOTAMs; Click for the latest NOTAMs: NOTAMs are issued by the DoD/FAA and will open in a separate window not controlled by AirNav. ICAO: KCOU IATA: COU Airport: Columbia Regional Airport City: Columbia State/Province: Missouri Country: United States Continent: North America KCOU METAR Weather: KCOU 081754Z 14018G28KT 10SM FEW075 23/10 A2974 RMK AO2 PK WND 14029/1715 SLP067 T02280100 10228 20139 58005 KCOU Flight Activity (FlightAware): KCOU Airport Info (iFlightPlanner): KCOU VFR Sectional Chart (iFlightPlanner). BizBall. By KCOU 88.1 FM. The Money Behind The Game. Join Matthew Newkirk, Tom Jamison, and Jordan Milewiczk as they analyze the cash behind the game of baseball. A KCOU-FM 88.1 Production. Airing live on Wednesdays at 9 AM on KCOU 88.1 FM. Listen on. KCOU Sports. 48 likes. The student voice of the Missouri Tigers. Listen to live Mizzou sports broadcasts & shows on KCOU 88.1 FM and at http://kcou.fm.

The only way is BIOS. The BIOS is very simple and easy way to find the temperature. You have to simply restart your pc and during boot-up simply start pressing delete key from the keyboard until BIOS open. The BIOS may be looking like different with various motherboards especially with gaming motherboards. Just don't scare with BIOS, actually. Mostly clear, with a low around 42. Southeast wind 7 to 13 mph, with gusts as high as 22 mph. Sunday. Mostly sunny, with a high near 78. Breezy, with a southeast wind 15 to 22 mph, with gusts as high as 33 mph. Sunday Night. A 40 percent chance of showers and thunderstorms after 8pm. Increasing clouds, with a low around 52. KCOU Airport Diagram Generated by the FAA. Captions. Summary . Description: English: Airport diagram for Columbia Regional Airport (COU) in Boone County, Missouri, U.S. Deutsch: Flughafendiagramm für Columbia Regional Airport (COU) in Boone County, Missouri, USA. Date: 2 December 2021. . Şu uçuş için uçuş durumu, takibi ve geçmiş verisi: N318CS 08-May-2022 (KHGR-KCOU) planlanan, tahmini ve gerçek kalkış ve varış zamanları da dâhil. See new Tweets. Conversation. Hadeth El-Joubbeh Home Page. Preparation Tests That You can Buy From Morrison Media LLC. Interesting Heritage Document Prepared by Dr. Julio Aljure (Al-Khoury) If you want to add, correct details in this document, please e-mail Dr. Julio Aljure E-mail Dr. Julio Aljure. Benefits of using Zippyshare: 1) Select a file to send by clicking the "Browse" button. You can then select photos, audio, video, documents or anything else you want to send. The maximum file size is 500 MB. 2) Click the "Start Upload" button to start uploading the file. You will see the progress of the file transfer.

Columbia Rgnl, Columbia, MO (COU/KCOU) flight tracking (arrivals, departures, en route, and scheduled flights) and airport status. . Default keyboard bindings for Microsoft Flight Simulator 2020. KCOU 250454Z AUTO 25005KT 10SM OVC100 14/12 A3003 RMK AO2 SLP167 T01440122. KCOU 250354Z AUTO 26005KT 10SM OVC100 14/12 A3001 RMK AO2 RAE0259 SLP162 P0000 T01440122. KCOU 250254Z AUTO 24003KT 10SM -RA OVC100 14/13 A3000 RMK AO2 RAB50 SLP157 P0000 60000 T01390133 51019. KCOU 250154Z 19005KT 10SM FEW120 14/13 A2998 RMK AO2 SLP151 T01390128. Status de voo, rastreamento e dados históricos para N1LF 1 de Out de 2019 (KMEM-KCOU) incluindo horários programados, estimados e reais de partida e chegada. Flugstatus, Tracking und Flugverlaufsdaten für N911CM 28.04.2022 (KCOU-KMKC) mit geplanten, geschätzten und tatsächlichen Start- und Landezeiten. 2020년 원격대학 인증 역량진단 편람 2020-07-30 [2018] 국회미래교육포럼 자료집 2018-03-28 [2016] 지속가능한 대한민국 온라인 고등교육 발전방안 포럼 자료 2016-11-29 [2015] 사이버대학 교육 효율성 제고를 위한 학사제도 운영 방안 연구 2016-07-15. michelle_kcou Michelle Kacou. 218.5K views. 19.2K Likes, 406 Comments. TikTok video from Michelle Kacou (@michelle_kcou): "Quand tu rentres dans un nouveau mois très spécial 💃🏼🔥🔥. Bon début de mois à tous, que Dieu vous bénisse richement ️ !! #foryou, #pourtoi, #happy". son original.

pacific doodles reviews